Time;durP1;ratioP1;P1;durP2;ratioP2;P2;SDS_P1;SDS_P2;PMS_P1;PMS_P2;Temp;Humidity;BMP_temperature;BMP_pressure;BME280_temperature;BME280_humidity;BME280_pressure;Samples;Min_cycle;Max_cycle;Signal;HPM_P1;HPM_P2
2021/07/11 00:01:08;;;;;;;2.83;0.93;;;18.60;90.60;;;;;;4957191;29;20114;-77
2021/07/11 00:03:33;;;;;;;2.55;0.90;;;18.60;90.40;;;;;;4956556;29;20380;-76
2021/07/11 00:05:59;;;;;;;3.58;0.90;;;18.60;90.50;;;;;;4938750;29;20037;-77
2021/07/11 00:08:25;;;;;;;1.58;0.90;;;18.60;90.50;;;;;;4936004;29;20090;-77
2021/07/11 00:10:51;;;;;;;2.83;0.85;;;18.60;90.50;;;;;;4936707;29;20075;-75
2021/07/11 00:13:16;;;;;;;1.10;0.85;;;18.60;90.60;;;;;;4938102;29;20420;-74
2021/07/11 00:15:42;;;;;;;3.22;0.90;;;18.60;90.60;;;;;;4955429;28;20031;-74
2021/07/11 00:18:08;;;;;;;1.50;0.80;;;18.60;90.50;;;;;;4939083;29;20433;-74
2021/07/11 00:20:33;;;;;;;0.98;0.88;;;18.50;90.60;;;;;;4938257;29;20027;-74
2021/07/11 00:22:59;;;;;;;1.58;0.73;;;18.50;90.60;;;;;;4938922;29;20027;-75
2021/07/11 00:25:25;;;;;;;3.05;0.90;;;18.50;90.60;;;;;;4935684;29;20038;-74
2021/07/11 00:27:51;;;;;;;1.15;0.85;;;18.50;90.80;;;;;;4937456;29;20106;-74
2021/07/11 00:30:18;;;;;;;1.73;1.10;;;18.50;90.90;;;;;;4937336;29;20453;-74
2021/07/11 00:32:44;;;;;;;1.30;0.82;;;18.50;90.90;;;;;;4937677;29;20445;-73
2021/07/11 00:35:10;;;;;;;1.98;1.00;;;18.50;91.00;;;;;;4920330;29;20032;-75
2021/07/11 00:37:35;;;;;;;1.42;0.80;;;18.50;90.90;;;;;;4919935;29;20042;-74
2021/07/11 00:40:02;;;;;;;3.97;1.00;;;18.50;91.10;;;;;;4920569;29;20101;-74
2021/07/11 00:42:28;;;;;;;1.25;0.90;;;18.50;91.10;;;;;;4919906;29;20114;-74
2021/07/11 00:44:53;;;;;;;2.58;1.00;;;18.40;91.20;;;;;;4920459;29;20115;-73
2021/07/11 00:47:19;;;;;;;2.42;0.90;;;18.30;91.30;;;;;;4919858;29;20035;-74
2021/07/11 00:49:46;;;;;;;2.25;1.17;;;18.30;91.40;;;;;;4920328;29;20469;-74
2021/07/11 00:52:13;;;;;;;1.60;0.90;;;18.20;91.40;;;;;;4920345;29;20024;-73
2021/07/11 00:54:38;;;;;;;1.38;0.80;;;18.20;91.70;;;;;;4919564;29;20540;-73
2021/07/11 00:57:05;;;;;;;1.83;0.98;;;18.10;91.70;;;;;;4920073;29;20107;-73
2021/07/11 00:59:32;;;;;;;1.65;0.98;;;18.10;91.80;;;;;;4918624;29;20066;-74
2021/07/11 01:02:30;;;;;;;4.22;1.10;;;18.10;91.90;;;;;;4919898;29;20031;-74
2021/07/11 01:05:01;;;;;;;2.65;1.00;;;18.10;92.00;;;;;;4920297;29;20030;-73
2021/07/11 01:07:36;;;;;;;2.47;1.08;;;18.00;92.00;;;;;;4919511;29;20123;-73
2021/07/11 01:10:37;;;;;;;1.73;1.10;;;18.00;92.00;;;;;;4920020;29;20028;-73
2021/07/11 01:13:06;;;;;;;1.30;0.90;;;18.00;92.10;;;;;;4896226;29;20067;-73
2021/07/11 01:15:34;;;;;;;3.25;1.13;;;18.00;92.10;;;;;;4919121;29;20031;-73
2021/07/11 01:18:06;;;;;;;3.22;1.30;;;18.00;92.20;;;;;;4919653;29;20036;-73
2021/07/11 01:20:40;;;;;;;2.83;0.95;;;18.00;92.20;;;;;;4935661;29;20020;-73
2021/07/11 01:23:43;;;;;;;4.00;1.30;;;18.10;92.30;;;;;;4919509;29;20024;-73
2021/07/11 01:26:12;;;;;;;1.77;1.20;;;18.00;92.30;;;;;;4919325;29;20031;-73
2021/07/11 01:28:39;;;;;;;1.90;1.00;;;18.10;92.20;;;;;;4935403;29;20039;-73
2021/07/11 01:31:05;;;;;;;2.28;1.17;;;18.10;92.10;;;;;;4919319;29;20368;-74
2021/07/11 01:33:33;;;;;;;2.53;1.23;;;18.10;92.10;;;;;;4935845;29;20028;-74
2021/07/11 01:36:00;;;;;;;2.13;1.10;;;18.20;92.20;;;;;;4919248;29;20031;-74
2021/07/11 01:38:27;;;;;;;2.03;1.10;;;18.10;92.20;;;;;;4918631;29;20040;-75
2021/07/11 01:40:53;;;;;;;1.70;1.20;;;18.20;92.30;;;;;;4936015;29;20023;-74
2021/07/11 01:43:22;;;;;;;1.73;1.20;;;18.10;92.20;;;;;;4935903;29;20079;-75
2021/07/11 01:45:53;;;;;;;3.13;1.10;;;18.10;92.30;;;;;;4936403;29;20046;-74
2021/07/11 01:48:18;;;;;;;1.35;1.20;;;18.10;92.30;;;;;;4918528;29;20027;-75
2021/07/11 01:50:50;;;;;;;4.18;1.20;;;18.20;92.40;;;;;;4919150;29;20031;-74
2021/07/11 01:53:21;;;;;;;2.03;1.30;;;18.10;92.40;;;;;;4919019;29;20020;-74
2021/07/11 01:55:47;;;;;;;2.10;1.30;;;18.10;92.50;;;;;;4918920;29;20026;-75
2021/07/11 01:58:13;;;;;;;6.00;1.33;;;18.10;92.50;;;;;;4935714;29;20457;-74
2021/07/11 02:00:38;;;;;;;2.47;1.50;;;18.10;92.50;;;;;;4935235;29;20123;-74
2021/07/11 02:03:17;;;;;;;1.52;1.17;;;18.10;92.60;;;;;;4936130;29;20453;-74
2021/07/11 02:05:45;;;;;;;2.58;1.15;;;18.20;92.70;;;;;;4934969;29;20030;-74
2021/07/11 02:08:11;;;;;;;1.63;0.95;;;18.10;92.50;;;;;;4919028;29;20035;-74
2021/07/11 02:10:37;;;;;;;2.20;1.30;;;18.10;92.60;;;;;;4935483;29;20024;-74
2021/07/11 02:13:27;;;;;;;1.60;1.33;;;18.20;92.60;;;;;;4937855;29;20023;-74
2021/07/11 02:15:54;;;;;;;1.90;1.05;;;18.20;92.60;;;;;;4937363;29;20122;-74
2021/07/11 02:18:26;;;;;;;4.13;1.35;;;18.20;92.60;;;;;;4954316;29;20098;-77
2021/07/11 02:20:53;;;;;;;1.50;1.20;;;18.20;92.50;;;;;;4937498;29;20114;-74
2021/07/11 02:23:22;;;;;;;2.10;1.30;;;18.20;92.50;;;;;;4937648;29;20024;-74
2021/07/11 02:25:49;;;;;;;3.75;1.33;;;18.20;92.70;;;;;;4937588;29;20019;-73
2021/07/11 02:28:17;;;;;;;2.85;2.00;;;18.20;92.70;;;;;;4937508;29;20051;-73
2021/07/11 02:30:55;;;;;;;5.30;1.17;;;18.30;92.70;;;;;;4954231;29;20027;-74
2021/07/11 02:33:54;;;;;;;2.72;1.40;;;18.20;92.70;;;;;;4936932;29;20027;-78
2021/07/11 02:36:24;;;;;;;2.10;1.35;;;18.20;92.70;;;;;;4950215;29;20125;-74
2021/07/11 02:39:00;;;;;;;2.00;1.20;;;18.30;92.80;;;;;;4936958;29;20035;-74
2021/07/11 02:41:29;;;;;;;4.32;1.40;;;18.30;92.80;;;;;;4953501;29;20373;-74
2021/07/11 02:43:58;;;;;;;3.25;1.55;;;18.20;92.80;;;;;;4937378;29;20059;-74
2021/07/11 02:46:30;;;;;;;2.17;1.50;;;18.20;92.90;;;;;;4936944;29;20082;-75
2021/07/11 02:48:57;;;;;;;3.35;1.40;;;18.20;92.90;;;;;;4954637;29;20106;-74
2021/07/11 02:51:25;;;;;;;2.53;1.25;;;18.30;92.90;;;;;;4954042;29;20031;-75
2021/07/11 02:53:54;;;;;;;1.63;1.52;;;18.30;92.90;;;;;;4954545;29;20453;-74
2021/07/11 02:56:21;;;;;;;3.97;1.55;;;18.30;92.90;;;;;;4937109;29;20457;-74
2021/07/11 02:58:51;;;;;;;2.92;1.30;;;18.30;92.90;;;;;;4936838;29;20380;-74
2021/07/11 03:01:18;;;;;;;2.03;1.30;;;18.30;93.00;;;;;;4937116;29;20086;-74
2021/07/11 03:03:44;;;;;;;11.60;1.60;;;18.20;93.00;;;;;;4953774;29;20361;-74
2021/07/11 03:06:10;;;;;;;1.88;1.35;;;18.20;93.00;;;;;;4937321;29;20027;-74
2021/07/11 03:08:36;;;;;;;3.10;1.58;;;18.20;93.10;;;;;;4936486;29;20054;-74
2021/07/11 03:11:03;;;;;;;4.18;1.70;;;18.20;93.10;;;;;;4936788;29;20030;-74
2021/07/11 03:13:35;;;;;;;2.58;1.40;;;18.20;93.20;;;;;;4936009;29;20078;-75
2021/07/11 03:16:01;;;;;;;1.92;1.30;;;18.20;93.10;;;;;;4954315;29;20102;-74
2021/07/11 03:18:30;;;;;;;3.33;1.75;;;18.20;93.20;;;;;;4936471;29;20199;-74
2021/07/11 03:20:55;;;;;;;5.43;1.98;;;18.20;93.10;;;;;;4936713;29;20030;-73
2021/07/11 03:23:22;;;;;;;2.40;1.55;;;18.20;93.20;;;;;;4936637;29;20028;-74
2021/07/11 03:25:49;;;;;;;2.45;1.45;;;18.20;93.30;;;;;;4936554;29;20084;-74
2021/07/11 03:28:19;;;;;;;6.97;1.70;;;18.20;93.40;;;;;;4954167;29;20516;-74
2021/07/11 03:30:49;;;;;;;6.15;1.60;;;18.10;93.30;;;;;;4953751;29;20131;-74
2021/07/11 03:33:17;;;;;;;2.42;1.63;;;18.10;93.40;;;;;;4936826;29;20035;-74
2021/07/11 03:35:56;;;;;;;5.10;1.60;;;18.10;93.40;;;;;;4953302;29;20030;-74
2021/07/11 03:38:30;;;;;;;3.63;1.70;;;18.10;93.40;;;;;;4936647;29;20028;-74
2021/07/11 03:40:56;;;;;;;3.10;1.52;;;18.10;93.40;;;;;;4937222;29;20038;-73
2021/07/11 03:43:25;;;;;;;5.15;1.80;;;18.00;93.40;;;;;;4936906;29;20024;-74
2021/07/11 03:45:54;;;;;;;4.45;2.00;;;18.00;93.50;;;;;;4953956;29;20023;-75
2021/07/11 03:48:39;;;;;;;3.63;1.55;;;18.00;93.50;;;;;;4936672;28;20062;-74
2021/07/11 03:51:06;;;;;;;3.53;1.58;;;18.00;93.40;;;;;;4957026;29;20026;-75
2021/07/11 03:53:34;;;;;;;4.22;1.60;;;18.00;93.50;;;;;;4956226;29;20479;-75
2021/07/11 03:56:03;;;;;;;7.10;2.10;;;18.00;93.50;;;;;;4940000;29;20034;-74
2021/07/11 03:58:34;;;;;;;3.63;1.70;;;18.00;93.40;;;;;;4939380;29;20046;-74
2021/07/11 04:01:00;;;;;;;2.30;1.70;;;18.00;93.40;;;;;;4940008;29;20055;-74
2021/07/11 04:03:27;;;;;;;5.82;1.75;;;17.90;93.50;;;;;;4957461;29;20027;-78
2021/07/11 04:05:55;;;;;;;8.95;1.63;;;18.00;93.50;;;;;;4940258;29;20023;-74
2021/07/11 04:08:21;;;;;;;8.35;1.60;;;18.00;93.40;;;;;;4957247;29;20027;-73
2021/07/11 04:10:48;;;;;;;3.33;1.73;;;18.00;93.40;;;;;;4939320;29;20027;-74
2021/07/11 04:13:16;;;;;;;1.80;1.52;;;18.00;93.40;;;;;;4940052;29;20027;-74
2021/07/11 04:15:46;;;;;;;6.30;1.38;;;18.10;93.40;;;;;;4939364;29;20094;-74
2021/07/11 04:18:15;;;;;;;7.82;1.52;;;18.00;93.30;;;;;;4957279;29;20074;-73
2021/07/11 04:20:42;;;;;;;3.58;1.67;;;18.00;93.20;;;;;;4939363;29;20125;-74
2021/07/11 04:23:09;;;;;;;3.33;1.58;;;18.00;93.20;;;;;;4939649;29;20019;-74
2021/07/11 04:25:40;;;;;;;3.15;1.60;;;18.00;93.10;;;;;;4955612;29;20027;-75
2021/07/11 04:28:06;;;;;;;;;;;17.90;92.90;;;;;;4956894;29;20031;-74
2021/07/11 04:30:32;;;;;;;2.80;1.60;;;18.00;92.90;;;;;;4938493;29;20244;-75
2021/07/11 04:32:58;;;;;;;1.60;1.35;;;18.00;92.70;;;;;;4939536;29;20066;-73
2021/07/11 04:35:24;;;;;;;2.08;1.20;;;18.00;92.40;;;;;;4956587;29;20452;-74
2021/07/11 04:37:49;;;;;;;2.65;1.30;;;17.90;92.30;;;;;;4956158;29;20031;-74
2021/07/11 04:40:15;;;;;;;3.53;1.50;;;17.90;92.40;;;;;;4939001;29;20027;-73
2021/07/11 04:42:41;;;;;;;4.28;1.63;;;18.00;92.20;;;;;;4938555;29;20074;-73
2021/07/11 04:45:07;;;;;;;2.28;1.52;;;17.90;92.00;;;;;;4956519;29;20354;-74
2021/07/11 04:47:33;;;;;;;2.85;1.73;;;17.80;92.10;;;;;;4938679;29;20420;-74
2021/07/11 04:49:59;;;;;;;4.97;1.40;;;17.90;92.00;;;;;;4939131;29;20055;-73
2021/07/11 04:52:25;;;;;;;3.22;1.50;;;17.80;92.00;;;;;;4956489;29;20027;-73
2021/07/11 04:54:51;;;;;;;4.13;1.40;;;17.90;91.90;;;;;;4938328;29;20027;-73
2021/07/11 04:57:16;;;;;;;2.88;1.40;;;17.90;91.70;;;;;;4956416;29;20141;-73
2021/07/11 04:59:42;;;;;;;3.40;1.75;;;17.90;91.60;;;;;;4955386;29;20050;-74
2021/07/11 05:02:08;;;;;;;5.88;1.50;;;17.90;91.60;;;;;;4938364;29;20031;-74
2021/07/11 05:04:34;;;;;;;2.42;1.23;;;17.80;91.50;;;;;;4938545;29;20457;-74
2021/07/11 05:06:59;;;;;;;3.47;1.20;;;17.80;91.60;;;;;;4938935;29;20031;-73
2021/07/11 05:09:25;;;;;;;2.40;1.30;;;17.80;91.60;;;;;;4956417;29;20081;-74
2021/07/11 05:11:51;;;;;;;1.50;1.15;;;17.80;91.50;;;;;;4938363;29;20079;-74
2021/07/11 05:14:17;;;;;;;2.53;1.70;;;17.80;91.40;;;;;;4938676;29;20369;-74
2021/07/11 05:16:43;;;;;;;4.90;1.50;;;17.80;91.30;;;;;;4938225;29;20019;-74
2021/07/11 05:19:09;;;;;;;3.33;1.45;;;17.80;91.20;;;;;;4955928;29;20114;-74
2021/07/11 05:21:35;;;;;;;2.80;1.40;;;17.80;91.20;;;;;;4937789;29;20034;-74
2021/07/11 05:24:01;;;;;;;3.65;1.25;;;17.90;91.20;;;;;;4955918;29;20041;-74
2021/07/11 05:26:27;;;;;;;5.50;1.33;;;17.90;91.00;;;;;;4938274;29;20027;-74
2021/07/11 05:28:53;;;;;;;2.15;1.33;;;18.00;90.90;;;;;;4937648;29;20079;-74
2021/07/11 05:31:19;;;;;;;2.10;1.40;;;18.00;90.80;;;;;;4938447;29;20028;-74
2021/07/11 05:33:45;;;;;;;4.13;1.45;;;18.00;90.80;;;;;;4954929;29;20030;-74
2021/07/11 05:36:11;;;;;;;2.40;1.30;;;18.00;90.50;;;;;;4955426;29;20457;-74
2021/07/11 05:38:39;;;;;;;4.20;1.50;;;18.10;90.50;;;;;;4937651;29;20031;-74
2021/07/11 05:41:05;;;;;;;3.33;1.40;;;18.10;90.50;;;;;;4955454;29;20035;-74
2021/07/11 05:43:32;;;;;;;3.08;1.45;;;18.10;90.40;;;;;;4955380;29;20027;-74
2021/07/11 05:45:58;;;;;;;2.50;1.33;;;18.10;90.40;;;;;;4938364;29;20111;-74
2021/07/11 05:48:23;;;;;;;5.20;1.60;;;18.20;90.30;;;;;;4937723;29;20122;-75
2021/07/11 05:50:49;;;;;;;4.28;1.50;;;18.20;90.20;;;;;;4937594;29;20031;-76
2021/07/11 05:53:15;;;;;;;2.25;1.40;;;18.20;90.20;;;;;;4938059;29;20081;-74
2021/07/11 05:55:41;;;;;;;2.40;1.23;;;18.30;90.20;;;;;;4954560;29;20031;-74
2021/07/11 05:58:07;;;;;;;1.45;1.00;;;18.30;90.00;;;;;;4937565;29;20035;-75
2021/07/11 06:00:33;;;;;;;1.50;1.30;;;18.30;90.00;;;;;;4936887;29;20043;-76
2021/07/11 06:02:59;;;;;;;2.70;1.33;;;18.40;89.50;;;;;;4937988;29;20024;-74
2021/07/11 06:05:25;;;;;;;1.83;1.20;;;18.40;89.70;;;;;;4955183;29;20365;-74
2021/07/11 06:07:50;;;;;;;2.33;1.42;;;18.40;89.90;;;;;;4954865;29;20027;-74
2021/07/11 06:10:16;;;;;;;2.58;1.13;;;18.40;89.40;;;;;;4954855;29;20102;-74
2021/07/11 06:12:43;;;;;;;2.75;1.20;;;18.40;89.10;;;;;;4953965;28;20440;-74
2021/07/11 06:15:10;;;;;;;5.07;1.25;;;18.40;89.40;;;;;;4937594;29;20038;-75
2021/07/11 06:17:36;;;;;;;3.03;1.17;;;18.30;89.00;;;;;;4937207;29;20030;-75
2021/07/11 06:20:08;;;;;;;2.42;1.13;;;18.40;89.20;;;;;;4937586;29;20540;-74
2021/07/11 06:22:35;;;;;;;4.57;1.52;;;18.40;89.10;;;;;;4935505;29;20035;-78
2021/07/11 06:25:06;;;;;;;1.90;1.25;;;18.40;89.10;;;;;;4918522;29;20111;-76
2021/07/11 06:27:41;;;;;;;3.45;1.27;;;18.40;89.10;;;;;;4918550;29;20024;-75
2021/07/11 06:30:14;;;;;;;1.50;1.00;;;18.40;88.70;;;;;;4918840;29;20038;-75
2021/07/11 06:32:41;;;;;;;2.63;1.02;;;18.40;88.70;;;;;;4937000;29;20089;-75
2021/07/11 06:35:09;;;;;;;1.90;0.93;;;18.40;88.70;;;;;;4954234;29;20102;-75
2021/07/11 06:37:35;;;;;;;1.70;1.10;;;18.40;88.50;;;;;;4936309;29;20369;-76
2021/07/11 06:40:02;;;;;;;5.60;1.48;;;18.40;88.30;;;;;;4937485;29;20020;-74
2021/07/11 06:42:28;;;;;;;3.53;1.58;;;18.40;89.00;;;;;;4937376;29;20524;-74
2021/07/11 06:44:54;;;;;;;2.25;1.23;;;18.40;88.70;;;;;;4937019;29;20122;-74
2021/07/11 06:47:19;;;;;;;4.13;1.30;;;18.40;89.00;;;;;;4954747;29;20369;-74
2021/07/11 06:49:45;;;;;;;7.32;2.97;;;18.40;88.00;;;;;;4953956;29;20027;-75
2021/07/11 06:52:10;;;;;;;4.38;1.60;;;18.40;88.60;;;;;;4954227;29;20090;-75
2021/07/11 06:54:36;;;;;;;5.85;1.63;;;18.40;88.80;;;;;;4953523;29;20466;-78
2021/07/11 06:57:02;;;;;;;2.75;1.20;;;18.40;88.80;;;;;;4954191;29;20028;-75
2021/07/11 06:59:27;;;;;;;3.33;1.08;;;18.40;89.30;;;;;;4936575;29;20077;-75
2021/07/11 07:01:53;;;;;;;2.92;1.67;;;18.50;89.50;;;;;;4953677;29;20058;-74
2021/07/11 07:04:19;;;;;;;5.68;2.08;;;18.50;88.60;;;;;;4931619;29;20369;-75
2021/07/11 07:06:44;;;;;;;6.70;2.60;;;18.60;87.50;;;;;;4940405;29;20141;-74
2021/07/11 07:09:10;;;;;;;3.17;1.10;;;18.50;87.20;;;;;;4935258;29;20039;-75
2021/07/11 07:11:36;;;;;;;2.97;1.20;;;18.50;86.80;;;;;;4947553;29;20028;-74
2021/07/11 07:14:01;;;;;;;3.70;1.13;;;18.60;87.40;;;;;;4936580;29;20033;-74
2021/07/11 07:16:27;;;;;;;3.95;1.02;;;18.60;87.00;;;;;;4954020;29;20031;-74
2021/07/11 07:18:52;;;;;;;2.58;1.13;;;18.70;85.50;;;;;;4936299;29;20127;-75
2021/07/11 07:21:18;;;;;;;1.38;1.08;;;18.70;84.30;;;;;;4954073;29;20031;-74
2021/07/11 07:23:44;;;;;;;2.65;0.93;;;18.70;82.30;;;;;;4955154;28;20024;-74
2021/07/11 07:26:10;;;;;;;3.63;0.90;;;18.70;81.80;;;;;;4940688;29;20061;-75
2021/07/11 07:28:37;;;;;;;1.88;0.82;;;18.60;82.40;;;;;;4957549;28;20047;-74
2021/07/11 07:31:02;;;;;;;1.92;1.02;;;18.60;82.70;;;;;;4939691;29;20035;-74
2021/07/11 07:33:28;;;;;;;4.38;1.05;;;18.60;82.60;;;;;;4940524;29;20036;-74
2021/07/11 07:35:54;;;;;;;1.63;1.00;;;18.70;82.80;;;;;;4939731;29;20050;-75
2021/07/11 07:38:20;;;;;;;2.67;1.20;;;18.70;83.10;;;;;;4957063;29;20472;-74
2021/07/11 07:40:45;;;;;;;2.55;0.90;;;18.70;82.30;;;;;;4938969;29;20104;-75
2021/07/11 07:43:13;;;;;;;1.38;0.70;;;18.70;81.80;;;;;;4939807;29;20034;-75
2021/07/11 07:45:41;;;;;;;1.17;0.93;;;18.70;82.00;;;;;;4939219;29;20094;-76
2021/07/11 07:48:08;;;;;;;1.88;1.00;;;18.70;81.60;;;;;;4939989;29;20514;-75
2021/07/11 07:50:34;;;;;;;3.22;1.60;;;18.70;82.40;;;;;;4940310;29;20041;-74
2021/07/11 07:53:00;;;;;;;4.22;1.30;;;18.80;82.90;;;;;;4925380;29;20041;-75
2021/07/11 07:55:28;;;;;;;1.90;1.40;;;18.90;82.80;;;;;;4936795;29;20035;-75
2021/07/11 07:57:53;;;;;;;2.00;0.88;;;18.90;82.00;;;;;;4935211;29;20031;-75
2021/07/11 08:00:19;;;;;;;3.70;0.93;;;19.10;80.70;;;;;;4938175;29;20550;-75
2021/07/11 08:02:45;;;;;;;1.80;1.02;;;19.20;80.50;;;;;;4936621;29;20028;-75
2021/07/11 08:05:11;;;;;;;2.20;1.15;;;19.30;80.60;;;;;;4939902;29;20024;-74
2021/07/11 08:07:37;;;;;;;1.73;1.10;;;19.40;79.40;;;;;;4957067;28;20519;-74
2021/07/11 08:10:05;;;;;;;1.50;1.00;;;19.40;79.10;;;;;;4939315;29;20023;-75
2021/07/11 08:12:31;;;;;;;1.73;1.27;;;19.40;79.90;;;;;;4931356;29;20042;-75
2021/07/11 08:14:56;;;;;;;1.40;0.90;;;19.40;80.00;;;;;;4956452;29;20039;-75
2021/07/11 08:17:22;;;;;;;2.05;0.80;;;19.30;79.80;;;;;;4940034;29;20035;-75
2021/07/11 08:19:48;;;;;;;2.78;1.00;;;19.40;79.80;;;;;;4939250;29;20175;-75
2021/07/11 08:22:14;;;;;;;1.58;1.02;;;19.30;79.40;;;;;;4956678;29;20030;-75
2021/07/11 08:24:39;;;;;;;1.67;1.10;;;19.50;79.80;;;;;;4956974;29;20472;-75
2021/07/11 08:27:05;;;;;;;1.30;1.10;;;19.70;79.40;;;;;;4938785;29;20536;-75
2021/07/11 08:29:31;;;;;;;6.18;1.42;;;19.80;78.40;;;;;;4939779;29;20063;-75
2021/07/11 08:31:57;;;;;;;3.05;1.80;;;19.90;76.80;;;;;;4938461;29;20118;-75
2021/07/11 08:34:23;;;;;;;3.42;1.23;;;20.00;76.90;;;;;;4939091;29;20122;-75
2021/07/11 08:36:52;;;;;;;1.63;0.98;;;20.20;76.10;;;;;;4955404;28;20059;-75
2021/07/11 08:39:18;;;;;;;1.00;0.90;;;20.20;76.80;;;;;;4956178;29;20496;-75
2021/07/11 08:41:45;;;;;;;1.95;1.17;;;20.30;77.70;;;;;;4938332;29;20032;-75
2021/07/11 08:44:10;;;;;;;3.83;1.10;;;20.40;78.20;;;;;;4956286;29;20054;-75
2021/07/11 08:46:37;;;;;;;2.08;1.10;;;20.40;78.40;;;;;;4956133;29;20058;-76
2021/07/11 08:49:03;;;;;;;1.60;1.08;;;20.50;78.60;;;;;;4955711;29;20444;-77
2021/07/11 08:51:30;;;;;;;3.22;1.35;;;20.50;77.70;;;;;;4953030;28;20114;-76
2021/07/11 08:53:56;;;;;;;1.73;0.80;;;20.40;78.00;;;;;;4953476;28;20033;-76
2021/07/11 08:56:25;;;;;;;1.80;1.17;;;20.40;77.80;;;;;;4939131;29;20465;-78
2021/07/11 08:58:54;;;;;;;1.75;0.93;;;20.40;78.40;;;;;;4938506;28;20093;-79
2021/07/11 09:01:22;;;;;;;2.45;1.05;;;20.30;78.20;;;;;;4939326;29;20027;-77
2021/07/11 09:04:01;;;;;;;2.30;1.02;;;20.30;78.80;;;;;;4955022;29;20027;-77
2021/07/11 09:06:37;;;;;;;2.50;1.15;;;20.30;78.60;;;;;;4938250;29;20023;-77
2021/07/11 09:09:03;;;;;;;2.25;0.90;;;20.10;79.10;;;;;;4934010;29;20031;-77
2021/07/11 09:11:28;;;;;;;3.38;1.15;;;20.20;79.50;;;;;;4938285;29;20172;-77
2021/07/11 09:13:54;;;;;;;2.13;1.30;;;20.30;79.20;;;;;;4954836;29;20031;-77
2021/07/11 09:16:19;;;;;;;2.67;0.98;;;20.30;79.40;;;;;;4937757;29;20481;-76
2021/07/11 09:18:51;;;;;;;2.30;1.10;;;20.30;79.00;;;;;;4955235;29;20090;-85
2021/07/11 09:21:17;;;;;;;;;;;20.40;78.90;;;;;;4939829;29;20113;-86
2021/07/11 09:23:43;;;;;;;1.92;0.90;;;20.40;78.20;;;;;;4937552;29;19948;-77
2021/07/11 09:26:14;;;;;;;2.05;1.02;;;20.40;78.40;;;;;;4936866;29;20027;-77
2021/07/11 09:28:49;;;;;;;2.25;1.08;;;20.50;78.10;;;;;;4955192;29;20104;-77
2021/07/11 09:31:16;;;;;;;2.03;0.95;;;20.60;78.00;;;;;;4955056;29;20035;-77
2021/07/11 09:33:45;;;;;;;1.13;0.90;;;20.70;77.30;;;;;;4954478;29;20078;-76
2021/07/11 09:36:19;;;;;;;1.50;1.20;;;20.80;77.10;;;;;;4937876;29;20027;-77
2021/07/11 09:38:53;;;;;;;3.60;1.13;;;21.00;77.80;;;;;;4954158;29;20036;-77
2021/07/11 09:41:27;;;;;;;2.53;1.10;;;21.10;76.90;;;;;;4937804;29;20042;-77
2021/07/11 09:43:58;;;;;;;1.23;1.13;;;21.20;75.60;;;;;;4937216;29;20110;-77
2021/07/11 09:46:25;;;;;;;1.75;0.93;;;21.30;75.70;;;;;;4937031;28;20027;-77
2021/07/11 09:48:51;;;;;;;2.95;1.13;;;21.30;75.30;;;;;;4936559;29;20035;-77
2021/07/11 09:51:19;;;;;;;1.85;0.93;;;21.30;75.10;;;;;;4954544;29;20027;-77
2021/07/11 09:53:46;;;;;;;1.88;1.00;;;21.30;74.00;;;;;;4937188;29;20512;-79
2021/07/11 09:56:29;;;;;;;3.08;1.10;;;21.40;73.80;;;;;;4937928;29;20023;-76
2021/07/11 09:58:56;;;;;;;2.65;1.00;;;21.40;74.10;;;;;;4932622;29;20052;-77
2021/07/11 10:01:23;;;;;;;2.63;1.00;;;21.40;74.90;;;;;;4918891;29;20027;-76
2021/07/11 10:03:49;;;;;;;1.70;1.00;;;21.50;75.40;;;;;;4918245;29;20019;-77
2021/07/11 10:06:15;;;;;;;2.63;1.10;;;21.60;75.80;;;;;;4918494;29;20028;-77
2021/07/11 10:08:42;;;;;;;2.17;1.30;;;21.60;75.70;;;;;;4918417;29;20070;-77
2021/07/11 10:11:07;;;;;;;2.25;1.20;;;21.50;74.90;;;;;;4934870;29;20019;-77
2021/07/11 10:13:34;;;;;;;1.27;1.10;;;21.40;74.60;;;;;;4935181;29;20426;-77
2021/07/11 10:16:01;;;;;;;1.77;1.10;;;21.50;73.20;;;;;;4918216;29;20031;-76
2021/07/11 10:18:28;;;;;;;1.48;1.10;;;21.30;72.90;;;;;;4935461;29;20032;-77
2021/07/11 10:20:56;;;;;;;1.77;1.17;;;21.30;73.30;;;;;;4918250;29;20453;-77
2021/07/11 10:23:24;;;;;;;1.75;1.10;;;21.30;72.90;;;;;;4935259;29;20035;-77
2021/07/11 10:26:07;;;;;;;1.33;0.95;;;21.30;73.00;;;;;;4934121;29;20055;-78
2021/07/11 10:28:39;;;;;;;1.58;0.98;;;21.30;72.60;;;;;;4917815;29;20114;-77
2021/07/11 10:31:16;;;;;;;;;;;21.20;72.50;;;;;;4935339;29;20046;-77
2021/07/11 10:33:43;;;;;;;1.55;1.10;;;21.30;72.90;;;;;;4934940;29;20255;-77
2021/07/11 10:36:09;;;;;;;3.13;1.25;;;21.40;73.00;;;;;;4917721;29;20134;-76
2021/07/11 10:38:39;;;;;;;1.17;1.05;;;21.50;72.80;;;;;;4917936;29;20513;-77
2021/07/11 10:41:20;;;;;;;1.63;1.17;;;21.60;72.30;;;;;;4935109;29;20027;-78
2021/07/11 10:44:09;;;;;;;1.08;1.00;;;21.70;70.40;;;;;;4918803;29;20066;-79
2021/07/11 10:46:44;;;;;;;1.50;1.15;;;21.80;69.30;;;;;;4918190;29;20354;-79
2021/07/11 10:49:18;;;;;;;2.85;1.08;;;21.90;68.60;;;;;;4917864;29;20031;-81
2021/07/11 10:51:49;;;;;;;2.88;1.20;;;21.90;68.90;;;;;;4919081;29;20027;-80
2021/07/11 10:54:19;;;;;;;1.10;0.90;;;22.00;70.90;;;;;;4919225;29;20365;-81
2021/07/11 10:56:44;;;;;;;3.55;0.88;;;22.10;68.60;;;;;;4921064;29;20059;-81
2021/07/11 10:59:10;;;;;;;2.55;0.90;;;22.10;67.00;;;;;;4943368;28;20093;-80
2021/07/11 11:01:37;;;;;;;2.22;1.00;;;22.30;66.80;;;;;;4942414;29;20035;-81
2021/07/11 11:04:04;;;;;;;1.48;0.90;;;22.40;66.70;;;;;;4959077;29;20110;-81
2021/07/11 11:06:39;;;;;;;1.40;1.23;;;22.40;65.00;;;;;;4943470;29;20035;-81
2021/07/11 11:09:05;;;;;;;1.73;0.93;;;22.50;64.80;;;;;;4941109;29;20034;-83
2021/07/11 11:11:31;;;;;;;1.85;1.00;;;22.40;65.00;;;;;;4942926;29;20031;-81
2021/07/11 11:14:06;;;;;;;1.90;1.20;;;22.40;64.90;;;;;;4941752;29;20035;-78
2021/07/11 11:16:48;;;;;;;3.28;1.05;;;22.40;65.90;;;;;;4941090;29;20027;-77
2021/07/11 11:19:14;;;;;;;2.00;1.10;;;22.40;67.70;;;;;;4958023;29;20146;-85
2021/07/11 11:21:41;;;;;;;56.60;30.85;;;22.40;68.20;;;;;;4958450;29;20102;-82
2021/07/11 11:24:06;;;;;;;7.82;3.60;;;22.30;69.20;;;;;;4940378;29;20074;-77
2021/07/11 11:26:32;;;;;;;3.55;2.22;;;22.30;68.70;;;;;;4958521;29;20020;-77
2021/07/11 11:29:00;;;;;;;5.13;1.83;;;22.30;68.50;;;;;;4939730;29;20034;-77
2021/07/11 11:31:29;;;;;;;5.78;1.67;;;22.40;68.70;;;;;;4957838;29;20035;-77
2021/07/11 11:33:57;;;;;;;1.45;1.10;;;22.40;67.90;;;;;;4940093;29;20118;-79
2021/07/11 11:36:36;;;;;;;1.13;0.90;;;22.30;68.00;;;;;;4958100;29;20164;-78
2021/07/11 11:39:24;;;;;;;1.45;0.98;;;22.40;67.50;;;;;;4957955;29;20034;-78
2021/07/11 11:41:50;;;;;;;1.83;0.93;;;22.40;66.90;;;;;;4941447;29;20032;-77
2021/07/11 11:44:18;;;;;;;3.97;0.90;;;22.50;67.70;;;;;;4940584;29;20039;-77
2021/07/11 11:46:47;;;;;;;1.10;1.00;;;22.50;67.00;;;;;;4940600;29;20029;-77
2021/07/11 11:49:25;;;;;;;2.47;1.05;;;22.40;67.70;;;;;;4939072;29;20031;-75
2021/07/11 11:51:56;;;;;;;3.58;1.15;;;22.40;67.40;;;;;;4940482;29;20433;-75
2021/07/11 11:54:27;;;;;;;1.75;1.15;;;22.50;67.80;;;;;;4940086;29;20078;-75
2021/07/11 11:56:54;;;;;;;;;;;22.60;67.40;;;;;;4957634;29;20102;-76
2021/07/11 11:59:20;;;;;;;1.83;0.80;;;22.60;65.60;;;;;;4939714;29;20356;-75
2021/07/11 12:01:46;;;;;;;2.03;0.90;;;22.50;65.80;;;;;;4940305;29;20027;-76
2021/07/11 12:04:16;;;;;;;1.00;0.77;;;22.50;66.40;;;;;;4939495;29;20625;-75
2021/07/11 12:06:47;;;;;;;1.45;0.80;;;22.60;67.70;;;;;;4939563;29;20030;-76
2021/07/11 12:09:13;;;;;;;1.60;0.82;;;22.70;68.20;;;;;;4938763;29;20449;-77
2021/07/11 12:11:39;;;;;;;1.85;1.20;;;22.70;68.80;;;;;;4955938;29;20081;-75
2021/07/11 12:14:11;;;;;;;3.17;1.20;;;22.60;69.10;;;;;;4939290;29;20035;-75
2021/07/11 12:16:38;;;;;;;5.18;1.08;;;22.60;69.60;;;;;;4957511;29;20024;-77
2021/07/11 12:19:06;;;;;;;1.13;0.90;;;22.60;70.50;;;;;;4939342;29;20043;-78
2021/07/11 12:21:33;;;;;;;2.40;1.25;;;22.60;69.60;;;;;;4940291;29;20063;-76
2021/07/11 12:24:13;;;;;;;1.45;1.10;;;22.60;69.20;;;;;;4956182;29;20481;-76
2021/07/11 12:26:47;;;;;;;2.15;0.98;;;22.80;68.40;;;;;;4939512;29;20494;-76
2021/07/11 12:29:19;;;;;;;1.20;0.90;;;22.80;69.00;;;;;;4938363;29;20031;-77
2021/07/11 12:31:45;;;;;;;1.38;1.00;;;22.70;68.10;;;;;;4956405;29;20039;-76
2021/07/11 12:34:13;;;;;;;2.33;0.95;;;22.80;67.40;;;;;;4955476;29;20023;-76
2021/07/11 12:36:48;;;;;;;1.35;1.05;;;22.70;67.30;;;;;;4939105;29;20038;-76
2021/07/11 12:39:16;;;;;;;1.50;0.90;;;22.60;68.60;;;;;;4955920;29;20465;-76
2021/07/11 12:41:42;;;;;;;1.10;0.90;;;22.60;68.70;;;;;;4939380;29;20028;-75
2021/07/11 12:44:08;;;;;;;2.58;0.90;;;22.60;68.90;;;;;;4938618;29;20380;-76
2021/07/11 12:46:34;;;;;;;1.95;1.00;;;22.50;68.10;;;;;;4939002;29;20035;-76
2021/07/11 12:49:06;;;;;;;0.70;0.60;;;22.60;68.10;;;;;;4938024;29;20031;-76
2021/07/11 12:51:50;;;;;;;2.67;1.00;;;22.50;67.20;;;;;;4938550;29;20519;-76
2021/07/11 12:54:21;;;;;;;2.03;0.95;;;22.50;67.20;;;;;;4955820;29;20035;-76